Pagrindinis puslapis
METAR-TAF:

METAR-TAF

Oro uostai :

Lansingas, Mičiganas, Jungtinės Amerikos Valstijos

platuma: 42-46-49N, ilguma: 084-34-44W, Aukštis: 262 m

Dabartinis oras

Ataskaita buvo paskelbta 30 minutes, ne 23:53 UTC
Vėjas 11 kt iš Pietų
Temperatūra 22°C
Drėgmė 57%
Slėgis 1008 hPa
Matomumas: 16.1 km
Giedras dangus

METAR: KLAN 262353Z 18011KT 10SM CLR 22/13 A2976 RMK AO2 SLP076 T02220133 10267 20222 56006

Laikas: 20:23 (00:23 UTC)

Prognozė

Ataskaita buvo paskelbta 43 minutes, ne 23:40 UTC
Prognozė galioja nuo 27 metu 00 UTC su 27 metu 24 UTC
Vėjas 10 kt iš Pietų
Matomumas: 10 km
Giedras dangus
Nuo 27 metu 0600 UTC
Vėjas 15 kt iš Pietų/Pietvakarių
Matomumas: 10 km
Išsisklaidę debesys ne aukštis 25000 ft
Nuo 27 metu 1000 UTC
Vėjas 14 kt iš Pietų/Pietvakarių
Matomumas: 10 km
Apsiniaukę ne aukštis 8000 ft
Nuo 27 metu 1400 UTC
Vėjas 13 kt iš Pietvakarių
Matomumas: 10 km
Apsiniaukę ne aukštis 2500 ft

TAF: KLAN 262340Z 2700/2724 18010KT P6SM SKC FM270600 20015KT P6SM SCT250 WS020/23045KT FM271000 21014KT P6SM OVC080 FM271400 22013KT P6SM OVC025

Orai ataskaitas ir orų prognozės (METAR, TAF).

turimą stotys yra geltonos ir raudonos taškus žemėlapyje.

Perkelti pele per norėdami pamatyti stoties vardą.

Tada spustelėkite, norėdami matyti oro stebėjimo ir prognozės.

Norėdami pakeisti žemėlapį: spustelėkite ant žalios mygtukų su juodo kryžiaus žemyn,; žalią mygtuką su brūkšneliu, jei norite nutolinti; arba žalių rodyklių gretimoms žemėlapius.


METAR-TAF: